Pagina principale
METAR-TAF:

METAR-TAF

Aeroporti :

Tunisi, Tunisia

Aeroporto di Tunisi-Cartagine

latitudine: 36-50N, longitudine: 010-14E, altezza: 3 m

Osservazione

Il bollettino è stato emesso 31 minuti fa, alle 00:30 UTC
Vento 8 kt da sud/sud-ovest
Temperature 10°C
Umidità 82%
Pressione 1021 hPa
Visibilità 10 km o più
Poco nuvoloso ad un'altezza di 2600 ft

METAR: DTTA 170030Z 20008KT 9999 FEW026 10/07 Q1021 NOSIG

Ora: 02:01 (01:01 UTC)

Previsione

Il bollettino è stato emesso 1 ora e 8 minuti fa, alle 23:53 UTC
Previsione valida dal 17 alle 00 UTC al 17 alle 24 UTC
Vento 6 kt da sud/sud-ovest
Visibilità: 8000 m
Poco nuvoloso ad un'altezza di 2600 ft

TAF: DTTA 162353Z 1700/1724 21006KT 8000 FEW026

Osservazioni e previsioni meteorologiche di più di 4000 aeroporti (messaggi METAR e TAF).

Le stazioni disponibili sono rappresentate dai dischi gialli e rossi sulla carta.

Puntare il mouse per vedere il nome della stazione.

Clicca sopra per visualizzare le osservazioni e previsioni meteorologiche.

Per cambiare la mappa : fare clic sui pulsanti verdi con una croce nera per ingrandire, il pulsante verde con un trattino per diminuire, o sulla freccia verde per le mappe adiacenti.


METAR-TAF: